createdAt,value
2023-02-23T00:02:07.522Z,57.98
2023-02-23T00:04:36.596Z,57.88
2023-02-23T00:07:06.411Z,57.76
2023-02-23T00:09:36.349Z,57.78
2023-02-23T00:12:08.842Z,56.55
2023-02-23T00:14:38.946Z,54.59
2023-02-23T00:17:14.403Z,54.20
2023-02-23T00:19:44.069Z,53.25
2023-02-23T00:22:12.909Z,53.90
2023-02-23T00:24:42.750Z,53.99
2023-02-23T00:27:18.151Z,54.01
2023-02-23T00:29:49.683Z,55.28
2023-02-23T00:32:20.261Z,57.10
2023-02-23T00:34:50.009Z,57.33
2023-02-23T00:37:18.446Z,55.43
2023-02-23T00:39:47.000Z,57.79
2023-02-23T00:42:16.639Z,55.68
2023-02-23T00:44:47.695Z,54.87
2023-02-23T00:47:16.008Z,56.90
2023-02-23T00:49:45.195Z,55.70
2023-02-23T00:52:15.134Z,56.28
2023-02-23T00:54:43.513Z,57.72
2023-02-23T00:57:11.769Z,57.83
2023-02-23T00:59:41.500Z,55.53
2023-02-23T01:02:09.901Z,56.99
2023-02-23T01:04:38.220Z,58.04
2023-02-23T01:07:06.778Z,55.81
2023-02-23T01:09:35.311Z,57.06
2023-02-23T01:12:07.675Z,56.22
2023-02-23T01:14:37.728Z,55.44
2023-02-23T01:17:07.674Z,56.21
2023-02-23T01:19:36.186Z,56.30
2023-02-23T01:22:04.550Z,57.12
2023-02-23T01:24:32.834Z,56.66
2023-02-23T01:27:01.216Z,56.66
2023-02-23T01:29:29.598Z,58.13
2023-02-23T01:31:58.085Z,56.27
2023-02-23T01:34:28.490Z,56.69
2023-02-23T01:36:56.812Z,54.94
2023-02-23T01:39:25.044Z,54.91
2023-02-23T01:41:54.537Z,55.26
2023-02-23T01:44:56.334Z,57.28
2023-02-23T01:47:26.847Z,56.33
2023-02-23T01:49:56.551Z,58.22
2023-02-23T01:52:24.907Z,57.72
2023-02-23T01:54:56.283Z,57.23
2023-02-23T01:57:27.179Z,56.53
2023-02-23T01:59:56.365Z,58.65
2023-02-23T02:02:33.654Z,59.89
2023-02-23T02:05:08.524Z,58.14
2023-02-23T02:07:39.698Z,58.66
2023-02-23T02:10:38.741Z,56.88
2023-02-23T02:13:10.118Z,58.09
2023-02-23T02:15:53.924Z,57.53
2023-02-23T02:18:32.172Z,57.26
2023-02-23T02:21:35.308Z,57.22
2023-02-23T02:24:36.629Z,56.52
2023-02-23T02:27:20.084Z,58.78
2023-02-23T02:30:17.926Z,57.43
2023-02-23T02:33:13.563Z,57.41
2023-02-23T02:36:29.613Z,59.16
2023-02-23T02:39:08.160Z,58.27
2023-02-23T02:41:42.918Z,57.30
2023-02-23T02:44:18.803Z,58.37
2023-02-23T02:46:51.206Z,58.08
2023-02-23T02:49:27.906Z,61.56
2023-02-23T02:52:02.195Z,58.36
2023-02-23T02:54:38.570Z,57.15
2023-02-23T02:57:09.603Z,57.69
2023-02-23T03:00:02.457Z,58.16
2023-02-23T03:02:50.674Z,57.07
2023-02-23T03:05:38.748Z,57.34
2023-02-23T03:08:32.355Z,58.37
2023-02-23T03:11:22.029Z,57.62
2023-02-23T03:14:25.146Z,57.12
2023-02-23T03:17:20.145Z,57.74
2023-02-23T03:20:15.690Z,59.42
2023-02-23T03:23:09.838Z,58.88
2023-02-23T03:26:07.416Z,59.72
2023-02-23T03:29:03.162Z,59.34
2023-02-23T03:31:59.480Z,60.68
2023-02-23T03:34:50.278Z,61.00
2023-02-23T03:37:41.525Z,60.32
2023-02-23T03:40:32.504Z,63.81
2023-02-23T03:43:24.648Z,59.31
2023-02-23T03:46:14.833Z,62.75
2023-02-23T03:49:04.322Z,60.29
2023-02-23T03:51:53.712Z,60.21
2023-02-23T03:54:47.287Z,59.31
2023-02-23T03:57:37.137Z,59.20
2023-02-23T04:00:27.202Z,60.76
2023-02-23T04:03:17.910Z,61.02
2023-02-23T04:06:05.252Z,59.50
2023-02-23T04:08:55.250Z,60.13
2023-02-23T04:11:54.435Z,58.41
2023-02-23T04:14:29.666Z,58.94
2023-02-23T04:16:58.590Z,59.29
2023-02-23T04:19:29.908Z,58.87
2023-02-23T04:21:58.182Z,61.14
2023-02-23T04:24:26.619Z,61.32
2023-02-23T04:26:54.994Z,61.02
2023-02-23T04:29:23.210Z,60.61
2023-02-23T04:31:52.167Z,59.54
2023-02-23T04:34:20.484Z,59.66
2023-02-23T04:36:51.431Z,58.95
2023-02-23T04:39:19.827Z,59.44
2023-02-23T04:41:49.092Z,63.47
2023-02-23T04:44:17.443Z,64.45
2023-02-23T04:46:45.873Z,62.43
2023-02-23T04:49:14.114Z,62.81
2023-02-23T04:51:42.484Z,62.47
2023-02-23T04:54:12.265Z,62.80
2023-02-23T04:56:40.720Z,64.03
2023-02-23T04:59:09.022Z,60.32
2023-02-23T05:01:37.454Z,61.56
2023-02-23T05:04:05.948Z,59.42
2023-02-23T05:06:34.403Z,60.33
2023-02-23T05:09:03.399Z,60.85
2023-02-23T05:11:33.378Z,60.99
2023-02-23T05:14:01.736Z,61.97
2023-02-23T05:16:30.023Z,62.33
2023-02-23T05:18:58.250Z,63.04
2023-02-23T05:21:26.580Z,63.03
2023-02-23T05:23:54.868Z,62.58
2023-02-23T05:26:23.141Z,62.76
2023-02-23T05:28:53.031Z,62.27
2023-02-23T05:31:21.815Z,62.16
2023-02-23T05:33:50.461Z,62.97
2023-02-23T05:36:22.001Z,64.20
2023-02-23T05:38:50.533Z,63.25
2023-02-23T05:41:21.656Z,62.62
2023-02-23T05:43:53.731Z,61.90
2023-02-23T05:46:24.401Z,62.07
2023-02-23T05:48:53.547Z,61.51
2023-02-23T05:51:22.095Z,61.68
2023-02-23T05:53:50.447Z,61.94
2023-02-23T05:56:20.975Z,61.58
2023-02-23T05:58:49.427Z,63.30
2023-02-23T06:01:19.548Z,61.70
2023-02-23T06:03:48.723Z,60.74
2023-02-23T06:06:17.629Z,61.81
2023-02-23T06:08:46.290Z,60.65
2023-02-23T06:11:14.643Z,59.87
2023-02-23T06:13:45.876Z,58.99
2023-02-23T06:16:14.176Z,58.37
2023-02-23T06:18:44.017Z,57.54
2023-02-23T06:21:12.400Z,56.15
2023-02-23T06:23:40.621Z,56.16
2023-02-23T06:26:09.414Z,55.51
2023-02-23T06:28:37.772Z,55.46
2023-02-23T06:31:06.977Z,54.62
2023-02-23T06:33:35.390Z,54.48
2023-02-23T06:36:05.581Z,53.66
2023-02-23T06:38:33.934Z,53.14
2023-02-23T06:41:02.164Z,53.33
2023-02-23T06:43:30.661Z,52.84
2023-02-23T06:46:00.209Z,51.58
2023-02-23T06:48:28.498Z,51.58
2023-02-23T06:50:59.357Z,51.29
2023-02-23T06:53:29.073Z,52.58
2023-02-23T06:55:57.403Z,51.28
2023-02-23T06:58:25.763Z,49.39
2023-02-23T07:00:56.556Z,49.86
2023-02-23T07:03:25.395Z,49.75
2023-02-23T07:05:55.133Z,50.02
2023-02-23T07:08:23.544Z,50.94
2023-02-23T07:10:57.901Z,50.41
2023-02-23T07:13:26.147Z,49.68
2023-02-23T07:15:58.764Z,49.55
2023-02-23T07:18:28.213Z,49.07
2023-02-23T07:20:56.565Z,47.15
2023-02-23T07:23:24.906Z,45.64
2023-02-23T07:25:56.734Z,44.94
2023-02-23T07:28:25.937Z,45.38
2023-02-23T07:30:57.292Z,45.27
2023-02-23T07:33:25.728Z,44.72
2023-02-23T07:35:54.472Z,43.85
2023-02-23T07:38:22.757Z,43.80
2023-02-23T07:40:51.852Z,43.62
2023-02-23T07:43:22.907Z,43.71
2023-02-23T07:45:54.107Z,41.36
2023-02-23T07:48:22.730Z,40.48
2023-02-23T07:50:50.942Z,41.37
2023-02-23T07:53:19.226Z,39.36
2023-02-23T07:55:47.592Z,39.28
2023-02-23T07:58:15.893Z,39.57
2023-02-23T08:00:45.706Z,38.02
2023-02-23T08:03:14.065Z,35.38
2023-02-23T08:05:42.288Z,37.04
2023-02-23T08:08:11.212Z,37.09
2023-02-23T08:10:39.450Z,35.38
2023-02-23T08:13:08.068Z,34.38
2023-02-23T08:15:36.402Z,35.54
2023-02-23T08:18:06.675Z,36.12
2023-02-23T08:20:34.946Z,36.80
2023-02-23T08:23:03.251Z,36.63
2023-02-23T08:25:31.456Z,36.92
2023-02-23T08:28:04.763Z,36.09
2023-02-23T08:30:33.212Z,35.71
2023-02-23T08:33:01.603Z,35.03
2023-02-23T08:35:31.258Z,33.13
2023-02-23T08:38:00.479Z,33.24
2023-02-23T08:40:28.730Z,33.28
2023-02-23T08:42:57.096Z,34.37
2023-02-23T08:45:25.380Z,34.27
2023-02-23T08:47:55.678Z,34.14
2023-02-23T08:50:27.033Z,33.98
2023-02-23T08:52:57.114Z,33.56
2023-02-23T08:55:25.385Z,33.58
2023-02-23T08:57:53.799Z,32.12
2023-02-23T09:00:22.972Z,32.73
2023-02-23T09:02:51.291Z,32.82
2023-02-23T09:05:20.506Z,30.32
2023-02-23T09:07:49.369Z,29.96
2023-02-23T09:10:24.130Z,30.92
2023-02-23T09:12:53.044Z,29.47
2023-02-23T09:15:21.351Z,30.15
2023-02-23T09:17:49.646Z,30.32
2023-02-23T09:20:18.536Z,28.36
2023-02-23T09:22:48.976Z,29.69
2023-02-23T09:25:22.206Z,29.13
2023-02-23T09:27:51.094Z,27.95
2023-02-23T09:30:20.766Z,27.52
2023-02-23T09:32:49.746Z,28.33
2023-02-23T09:35:19.680Z,28.91
2023-02-23T09:37:49.854Z,29.26
2023-02-23T09:40:23.404Z,28.96
2023-02-23T09:43:00.486Z,28.91
2023-02-23T09:45:39.769Z,27.24
2023-02-23T09:48:14.154Z,26.63
2023-02-23T09:50:46.296Z,26.97
2023-02-23T09:53:34.366Z,27.23
2023-02-23T09:56:09.577Z,27.09
2023-02-23T09:58:38.032Z,26.12
2023-02-23T10:01:54.001Z,26.55
2023-02-23T10:04:24.568Z,26.05
2023-02-23T10:06:59.263Z,26.29
2023-02-23T10:09:40.263Z,27.07
2023-02-23T10:12:15.575Z,27.28
2023-02-23T10:15:01.221Z,27.20
2023-02-23T10:17:40.270Z,27.37
2023-02-23T10:20:20.468Z,27.10
2023-02-23T10:22:51.229Z,27.22
2023-02-23T10:25:24.142Z,25.97
2023-02-23T10:27:57.620Z,26.57
2023-02-23T10:30:27.858Z,26.07
2023-02-23T10:33:02.865Z,25.88
2023-02-23T10:35:32.261Z,25.81
2023-02-23T10:38:02.848Z,25.81
2023-02-23T10:40:34.595Z,25.69
2023-02-23T10:43:04.755Z,26.36
2023-02-23T10:45:39.838Z,26.17
2023-02-23T10:48:13.619Z,25.63
2023-02-23T10:50:45.850Z,25.80
2023-02-23T10:53:18.164Z,26.27
2023-02-23T10:55:47.982Z,26.14
2023-02-23T10:58:20.380Z,25.41
2023-02-23T11:00:54.725Z,26.00
2023-02-23T11:03:31.214Z,24.83
2023-02-23T11:05:59.858Z,23.91
2023-02-23T11:08:32.074Z,23.39
2023-02-23T11:11:10.424Z,24.68
2023-02-23T11:13:42.821Z,23.78
2023-02-23T11:16:14.467Z,23.63
2023-02-23T11:18:45.224Z,23.41
2023-02-23T11:21:19.375Z,24.05
2023-02-23T11:23:51.379Z,23.01
2023-02-23T11:26:38.342Z,24.08
2023-02-23T11:29:17.928Z,23.78
2023-02-23T11:31:51.639Z,23.58
2023-02-23T11:34:28.757Z,23.69
2023-02-23T11:37:03.363Z,23.28
2023-02-23T11:39:31.979Z,23.05
2023-02-23T11:42:19.513Z,23.27
2023-02-23T11:45:08.161Z,23.84
2023-02-23T11:47:41.723Z,24.39
2023-02-23T11:50:24.032Z,24.49
2023-02-23T11:52:58.832Z,23.58
2023-02-23T11:55:28.112Z,24.76
2023-02-23T11:58:10.298Z,24.67
2023-02-23T12:00:40.540Z,23.91
2023-02-23T12:03:09.214Z,23.91
2023-02-23T12:05:37.590Z,23.25
2023-02-23T12:08:09.608Z,23.44
2023-02-23T12:10:43.182Z,25.89
2023-02-23T12:13:26.543Z,26.83
2023-02-23T12:16:00.147Z,25.20
2023-02-23T12:18:39.842Z,25.77
2023-02-23T12:21:19.345Z,25.46
2023-02-23T12:23:52.540Z,24.38
2023-02-23T12:26:24.487Z,24.37
2023-02-23T12:28:59.609Z,24.26
2023-02-23T12:31:34.982Z,24.26
2023-02-23T12:34:11.176Z,23.87
2023-02-23T12:36:43.952Z,24.29
2023-02-23T12:39:20.888Z,24.13
2023-02-23T12:41:56.992Z,24.27
2023-02-23T12:44:35.717Z,24.67
2023-02-23T12:47:15.447Z,24.42
2023-02-23T12:49:50.650Z,24.02
2023-02-23T12:52:24.025Z,24.94
2023-02-23T12:54:52.481Z,25.42
2023-02-23T12:57:30.263Z,24.43
2023-02-23T13:00:35.218Z,25.29
2023-02-23T13:03:29.417Z,23.50
2023-02-23T13:06:05.503Z,24.51
2023-02-23T13:08:52.673Z,24.34
2023-02-23T13:11:28.955Z,24.76
2023-02-23T13:14:04.679Z,25.20
2023-02-23T13:16:38.913Z,24.73
2023-02-23T13:19:19.505Z,24.99
2023-02-23T13:21:54.636Z,25.19
2023-02-23T13:24:27.149Z,26.22
2023-02-23T13:27:02.677Z,26.24
2023-02-23T13:29:37.382Z,26.21
2023-02-23T13:32:11.350Z,26.97
2023-02-23T13:34:45.713Z,27.68
2023-02-23T13:37:20.653Z,29.31
2023-02-23T13:39:57.841Z,30.15
2023-02-23T13:42:38.041Z,30.07
2023-02-23T13:45:28.903Z,31.41
2023-02-23T13:48:03.828Z,31.60
2023-02-23T13:50:45.503Z,31.73
2023-02-23T13:53:33.873Z,32.76
2023-02-23T13:56:06.910Z,33.21
2023-02-23T13:58:35.862Z,33.78
2023-02-23T14:01:13.154Z,34.80
2023-02-23T14:03:49.801Z,35.22
2023-02-23T14:06:20.835Z,36.07
2023-02-23T14:08:57.052Z,36.49
2023-02-23T14:11:45.086Z,36.78
2023-02-23T14:14:17.405Z,36.68
2023-02-23T14:17:05.777Z,36.88
2023-02-23T14:19:38.263Z,36.95
2023-02-23T14:22:11.809Z,38.26
2023-02-23T14:24:40.125Z,38.27
2023-02-23T14:27:42.012Z,38.24
2023-02-23T14:30:28.184Z,38.61
2023-02-23T14:33:21.217Z,38.66
2023-02-23T14:35:51.199Z,38.12
2023-02-23T14:38:47.574Z,39.03
2023-02-23T14:41:16.453Z,39.73
2023-02-23T14:43:46.547Z,40.82
2023-02-23T14:46:21.241Z,41.67
2023-02-23T14:49:01.235Z,42.21
2023-02-23T14:51:42.356Z,42.57
2023-02-23T14:54:24.892Z,43.20
2023-02-23T14:56:55.056Z,44.39
2023-02-23T14:59:27.167Z,45.01
2023-02-23T15:01:56.659Z,44.16
2023-02-23T15:04:27.520Z,44.70
2023-02-23T15:06:58.757Z,45.88
2023-02-23T15:09:36.694Z,46.56
2023-02-23T15:12:16.803Z,47.79
2023-02-23T15:14:46.815Z,47.94
2023-02-23T15:17:19.304Z,48.69
2023-02-23T15:19:49.627Z,48.89
2023-02-23T15:22:26.319Z,49.50
2023-02-23T15:24:59.337Z,50.03
2023-02-23T15:27:32.306Z,50.26
2023-02-23T15:30:04.543Z,51.02
2023-02-23T15:32:33.149Z,52.38
2023-02-23T15:35:04.513Z,53.44
2023-02-23T15:37:37.642Z,53.90
2023-02-23T15:40:12.172Z,55.50
2023-02-23T15:42:44.025Z,55.84
2023-02-23T15:45:21.061Z,56.28
2023-02-23T15:47:50.346Z,57.08
2023-02-23T15:50:31.213Z,57.07
2023-02-23T15:53:13.732Z,57.70
2023-02-23T15:55:45.620Z,57.09
2023-02-23T15:58:20.009Z,58.55
2023-02-23T16:00:55.782Z,59.81
2023-02-23T16:03:25.754Z,58.63
2023-02-23T16:06:02.367Z,59.13
2023-02-23T16:08:31.359Z,60.37
2023-02-23T16:11:12.043Z,61.09
2023-02-23T16:13:44.952Z,60.32
2023-02-23T16:16:19.479Z,60.69
2023-02-23T16:18:53.420Z,60.32
2023-02-23T16:21:25.428Z,61.57
2023-02-23T16:23:55.920Z,59.16
2023-02-23T16:26:29.347Z,57.28
2023-02-23T16:28:59.890Z,56.48
2023-02-23T16:31:44.512Z,57.46
2023-02-23T16:34:22.327Z,56.25
2023-02-23T16:36:53.881Z,56.26
2023-02-23T16:39:25.529Z,60.53
2023-02-23T16:41:55.276Z,62.30
2023-02-23T16:44:28.484Z,61.82
2023-02-23T16:47:13.671Z,62.48
2023-02-23T16:49:41.942Z,62.04
2023-02-23T16:52:18.563Z,64.07
2023-02-23T16:54:48.894Z,64.31
2023-02-23T16:57:23.747Z,66.12
2023-02-23T16:59:52.808Z,66.86
2023-02-23T17:02:22.973Z,67.19
2023-02-23T17:04:53.002Z,66.72
2023-02-23T17:07:24.076Z,65.75
2023-02-23T17:09:52.470Z,65.85
2023-02-23T17:12:22.119Z,65.79
2023-02-23T17:14:50.854Z,65.14
2023-02-23T17:17:21.903Z,67.64
2023-02-23T17:19:50.259Z,68.49
2023-02-23T17:22:18.697Z,67.15
2023-02-23T17:24:47.002Z,68.98
2023-02-23T17:27:15.308Z,68.89
2023-02-23T17:29:45.247Z,68.02
2023-02-23T17:32:13.836Z,65.27
2023-02-23T17:37:27.920Z,66.76
2023-02-23T17:39:56.698Z,65.21
2023-02-23T17:42:35.113Z,66.27
2023-02-23T17:45:07.065Z,66.09
2023-02-23T17:47:36.673Z,65.49
2023-02-23T17:50:05.095Z,64.87
2023-02-23T17:52:33.319Z,64.18
2023-02-23T17:55:01.739Z,65.05
2023-02-23T17:57:30.850Z,65.41
2023-02-23T17:59:59.999Z,65.27
2023-02-23T18:02:29.729Z,64.07
2023-02-23T18:04:57.987Z,64.43
2023-02-23T18:07:26.429Z,63.93
2023-02-23T18:09:54.777Z,64.38
2023-02-23T18:12:23.096Z,63.04
2023-02-23T18:14:51.534Z,63.61
2023-02-23T18:17:19.838Z,63.13
2023-02-23T18:19:51.268Z,62.78
2023-02-23T18:22:20.047Z,63.19
2023-02-23T18:24:48.349Z,63.58
2023-02-23T18:27:16.672Z,63.00
2023-02-23T18:29:45.323Z,63.15
2023-02-23T18:32:13.910Z,64.07
2023-02-23T18:34:42.255Z,62.51
2023-02-23T18:37:11.960Z,62.93
2023-02-23T18:39:40.264Z,63.29
2023-02-23T18:42:08.538Z,63.04
2023-02-23T18:44:36.820Z,63.10
2023-02-23T18:47:07.874Z,66.75
2023-02-23T18:49:37.082Z,66.70
2023-02-23T18:52:09.506Z,66.73
2023-02-23T18:54:39.893Z,64.37
2023-02-23T18:57:08.216Z,63.85
2023-02-23T18:59:36.626Z,63.43
2023-02-23T19:02:05.615Z,62.86
2023-02-23T19:04:34.072Z,63.21
2023-02-23T19:07:02.402Z,63.68
2023-02-23T19:09:30.678Z,64.46
2023-02-23T19:12:00.320Z,65.73
2023-02-23T19:14:47.834Z,65.56
2023-02-23T19:17:16.916Z,66.31
2023-02-23T19:19:45.408Z,66.67
2023-02-23T19:22:13.850Z,67.46
2023-02-23T19:24:42.108Z,67.52
2023-02-23T19:27:12.039Z,67.74
2023-02-23T19:29:40.572Z,67.29
2023-02-23T19:32:09.780Z,66.89
2023-02-23T19:34:40.212Z,66.75
2023-02-23T19:37:09.177Z,67.34
2023-02-23T19:39:38.076Z,68.19
2023-02-23T19:42:06.831Z,67.24
2023-02-23T19:44:36.533Z,66.54
2023-02-23T19:47:05.027Z,66.26
2023-02-23T19:49:33.418Z,65.69
2023-02-23T19:52:01.662Z,64.93
2023-02-23T19:54:34.433Z,65.25
2023-02-23T19:57:05.631Z,64.92
2023-02-23T19:59:33.972Z,65.29
2023-02-23T20:02:03.657Z,65.86
2023-02-23T20:04:32.011Z,65.35
2023-02-23T20:07:00.352Z,65.76
2023-02-23T20:09:28.630Z,65.31
2023-02-23T20:11:57.244Z,65.50
2023-02-23T20:14:25.531Z,66.32
2023-02-23T20:16:53.984Z,65.91
2023-02-23T20:19:24.492Z,65.42
2023-02-23T20:21:53.052Z,65.71
2023-02-23T20:24:21.419Z,66.79
2023-02-23T20:26:52.378Z,66.22
2023-02-23T20:29:21.640Z,66.09
2023-02-23T20:31:52.044Z,66.43
2023-02-23T20:34:24.130Z,67.08
2023-02-23T20:36:55.787Z,66.18
2023-02-23T20:39:26.961Z,66.43
2023-02-23T20:41:55.318Z,65.72
2023-02-23T20:44:25.128Z,65.90
2023-02-23T20:46:53.410Z,66.05
2023-02-23T20:49:22.869Z,65.56
2023-02-23T20:51:51.246Z,65.60
2023-02-23T20:54:21.370Z,65.75
2023-02-23T20:56:59.048Z,65.25
2023-02-23T20:59:30.825Z,65.47
2023-02-23T21:02:01.936Z,65.11
2023-02-23T21:04:30.454Z,65.56
2023-02-23T21:07:00.135Z,65.68
2023-02-23T21:09:31.183Z,65.83
2023-02-23T21:11:59.783Z,66.51
2023-02-23T21:14:28.185Z,66.09
2023-02-23T21:16:56.426Z,66.85
2023-02-23T21:19:24.764Z,65.88
2023-02-23T21:21:58.083Z,65.25
2023-02-23T21:24:28.923Z,64.82
2023-02-23T21:26:58.604Z,64.68
2023-02-23T21:29:28.146Z,65.40
2023-02-23T21:31:56.725Z,65.11
2023-02-23T21:34:25.054Z,65.08
2023-02-23T21:36:54.113Z,65.34
2023-02-23T21:39:22.871Z,65.21
2023-02-23T21:41:51.221Z,64.37
2023-02-23T21:44:20.883Z,65.30
2023-02-23T21:46:50.702Z,64.75
2023-02-23T21:49:20.837Z,65.19
2023-02-23T21:51:49.134Z,64.82
2023-02-23T21:54:18.633Z,66.06
2023-02-23T21:56:46.862Z,67.51
2023-02-23T21:59:15.636Z,66.98
2023-02-23T22:01:45.319Z,66.70
2023-02-23T22:04:15.964Z,68.26
2023-02-23T22:06:45.497Z,68.92
2023-02-23T22:09:15.956Z,67.22
2023-02-23T22:11:46.942Z,67.24
2023-02-23T22:14:16.887Z,67.75
2023-02-23T22:16:47.977Z,69.28
2023-02-23T22:19:16.875Z,69.25
2023-02-23T22:21:48.003Z,69.21
2023-02-23T22:24:17.080Z,70.50
2023-02-23T22:26:50.687Z,70.82
2023-02-23T22:29:19.116Z,70.30
2023-02-23T22:31:49.225Z,68.95
2023-02-23T22:34:18.510Z,68.70
2023-02-23T22:36:48.534Z,69.33
2023-02-23T22:39:18.686Z,70.07
2023-02-23T22:41:48.112Z,70.79
2023-02-23T22:44:18.441Z,68.81
2023-02-23T22:46:49.162Z,68.59
2023-02-23T22:49:20.223Z,68.18
2023-02-23T22:51:48.804Z,67.72
2023-02-23T22:54:18.765Z,68.34
2023-02-23T22:56:47.112Z,71.56
2023-02-23T22:59:17.788Z,71.63
2023-02-23T23:01:47.655Z,68.68
2023-02-23T23:04:17.455Z,67.94
2023-02-23T23:06:46.420Z,68.51
2023-02-23T23:09:16.606Z,67.82
2023-02-23T23:11:45.403Z,66.65
2023-02-23T23:14:14.247Z,66.85
2023-02-23T23:16:48.332Z,68.49
2023-02-23T23:19:24.829Z,68.10
2023-02-23T23:21:55.794Z,67.47
2023-02-23T23:24:25.459Z,67.11
2023-02-23T23:27:00.528Z,66.59
2023-02-23T23:29:30.750Z,66.91
2023-02-23T23:31:59.186Z,67.36
2023-02-23T23:34:28.957Z,66.77
2023-02-23T23:36:57.604Z,68.54
2023-02-23T23:39:27.100Z,68.02
2023-02-23T23:41:55.864Z,71.50
2023-02-23T23:44:29.294Z,70.91
2023-02-23T23:46:58.237Z,69.15
2023-02-23T23:49:26.822Z,68.18
2023-02-23T23:51:57.487Z,67.41
2023-02-23T23:54:27.494Z,67.39
2023-02-23T23:56:56.363Z,67.38
2023-02-23T23:59:26.778Z,69.29
